Time,TemperatureF,DewpointF,PressureIn,WindDirection,WindDirectionDegrees,WindSpeedMPH,WindSpeedGustMPH,Humidity,HourlyPrecipIn,Conditions,Clouds,dailyrainin,SoftwareType,DateUTC
2013-02-07 00:03:00,39.7,37.6,30.12,North,6,0.0,3.0,92,0.00,,,0.00,Wunderground v.1.15,2013-02-07 05:03:00,
2013-02-07 00:08:00,40.1,38.0,30.13,NW,321,1.0,3.0,92,0.00,,,0.00,Wunderground v.1.15,2013-02-07 05:08:00,
2013-02-07 00:13:00,40.1,37.7,30.13,West,277,1.0,3.0,91,0.00,,,0.00,Wunderground v.1.15,2013-02-07 05:13:00,
2013-02-07 00:18:00,40.0,37.6,30.13,NE,56,0.0,3.0,91,0.00,,,0.00,Wunderground v.1.15,2013-02-07 05:18:00,
2013-02-07 00:23:00,40.6,38.5,30.12,ENE,67,1.0,3.0,92,0.00,,,0.00,Wunderground v.1.15,2013-02-07 05:23:00,
2013-02-07 00:33:00,41.6,38.9,30.12,NNE,33,1.0,3.0,90,0.00,,,0.00,Wunderground v.1.15,2013-02-07 05:33:00,
2013-02-07 00:38:00,41.3,38.3,30.13,SW,222,0.0,3.0,89,0.00,,,0.00,Wunderground v.1.15,2013-02-07 05:38:00,
2013-02-07 00:43:00,40.9,37.9,30.13,SW,224,0.0,3.0,89,0.00,,,0.00,Wunderground v.1.15,2013-02-07 05:43:00,
2013-02-07 00:48:00,40.2,37.2,30.13,SW,221,1.0,3.0,89,0.00,,,0.00,Wunderground v.1.15,2013-02-07 05:48:00,
2013-02-07 00:53:00,39.9,37.2,30.13,SW,220,1.0,3.0,90,0.00,,,0.00,Wunderground v.1.15,2013-02-07 05:53:00,
2013-02-07 01:03:00,39.7,37.3,30.13,SW,219,0.0,3.0,91,0.00,,,0.00,Wunderground v.1.15,2013-02-07 06:03:00,
2013-02-07 01:08:00,39.8,37.4,30.12,SW,219,0.0,3.0,91,0.00,,,0.00,Wunderground v.1.15,2013-02-07 06:08:00,
2013-02-07 01:13:00,39.8,37.4,30.12,SW,219,0.0,3.0,91,0.00,,,0.00,Wunderground v.1.15,2013-02-07 06:13:00,
2013-02-07 01:18:00,39.8,37.7,30.12,SW,219,0.0,3.0,92,0.00,,,0.00,Wunderground v.1.15,2013-02-07 06:18:00,
2013-02-07 01:23:00,40.0,37.9,30.12,SW,219,0.0,3.0,92,0.00,,,0.00,Wunderground v.1.15,2013-02-07 06:23:00,
2013-02-07 01:28:00,40.0,37.9,30.12,SW,219,0.0,3.0,92,0.00,,,0.00,Wunderground v.1.15,2013-02-07 06:28:00,
2013-02-07 01:38:00,40.3,37.9,30.12,SW,219,0.0,3.0,91,0.00,,,0.00,Wunderground v.1.15,2013-02-07 06:38:00,
2013-02-07 01:43:00,40.2,37.8,30.12,SW,232,0.0,3.0,91,0.00,,,0.00,Wunderground v.1.15,2013-02-07 06:43:00,
2013-02-07 01:48:00,40.0,37.6,30.12,SW,232,0.0,3.0,91,0.00,,,0.00,Wunderground v.1.15,2013-02-07 06:48:00,
2013-02-07 01:53:00,39.7,37.3,30.13,WSW,245,1.0,3.0,91,0.00,,,0.00,Wunderground v.1.15,2013-02-07 06:53:00,
2013-02-07 01:58:00,39.5,37.4,30.13,WSW,245,0.0,3.0,92,0.00,,,0.00,Wunderground v.1.15,2013-02-07 06:58:00,
2013-02-07 02:08:00,39.6,37.7,30.13,WSW,245,0.0,3.0,93,0.00,,,0.00,Wunderground v.1.15,2013-02-07 07:08:00,
2013-02-07 02:13:00,39.6,37.7,30.13,WSW,245,0.0,3.0,93,0.00,,,0.00,Wunderground v.1.15,2013-02-07 07:13:00,
2013-02-07 02:18:00,39.6,37.7,30.13,WSW,245,0.0,3.0,93,0.00,,,0.00,Wunderground v.1.15,2013-02-07 07:18:00,
2013-02-07 02:23:00,39.7,37.8,30.13,WSW,245,0.0,3.0,93,0.00,,,0.00,Wunderground v.1.15,2013-02-07 07:23:00,
2013-02-07 02:28:00,39.9,38.0,30.13,WSW,245,0.0,3.0,93,0.00,,,0.00,Wunderground v.1.15,2013-02-07 07:28:00,
2013-02-07 02:33:00,40.0,38.1,30.13,WSW,245,0.0,3.0,93,0.00,,,0.00,Wunderground v.1.15,2013-02-07 07:33:00,
2013-02-07 02:43:00,40.0,38.1,30.13,WSW,245,0.0,3.0,93,0.00,,,0.00,Wunderground v.1.15,2013-02-07 07:43:00,
2013-02-07 02:48:00,39.9,38.0,30.13,WSW,245,0.0,3.0,93,0.00,,,0.00,Wunderground v.1.15,2013-02-07 07:48:00,
2013-02-07 02:53:00,39.9,38.0,30.13,WSW,245,0.0,3.0,93,0.00,,,0.00,Wunderground v.1.15,2013-02-07 07:53:00,
2013-02-07 02:58:00,39.9,38.0,30.13,WSW,245,0.0,3.0,93,0.00,,,0.00,Wunderground v.1.15,2013-02-07 07:58:00,
2013-02-07 03:03:00,39.9,38.0,30.13,WSW,245,0.0,3.0,93,0.00,,,0.00,Wunderground v.1.15,2013-02-07 08:03:00,
2013-02-07 03:13:00,39.9,38.0,30.14,WSW,245,0.0,3.0,93,0.00,,,0.00,Wunderground v.1.15,2013-02-07 08:13:00,
2013-02-07 03:18:00,39.9,38.0,30.14,WSW,245,0.0,3.0,93,0.00,,,0.00,Wunderground v.1.15,2013-02-07 08:18:00,
2013-02-07 03:23:00,40.0,38.1,30.14,WSW,245,0.0,3.0,93,0.00,,,0.00,Wunderground v.1.15,2013-02-07 08:23:00,
2013-02-07 03:28:00,40.1,38.2,30.14,WSW,245,0.0,3.0,93,0.00,,,0.00,Wunderground v.1.15,2013-02-07 08:28:00,
2013-02-07 03:33:00,40.1,38.2,30.14,WSW,245,0.0,3.0,93,0.00,,,0.00,Wunderground v.1.15,2013-02-07 08:33:00,
2013-02-07 03:38:00,40.1,38.2,30.14,WSW,245,0.0,3.0,93,0.00,,,0.00,Wunderground v.1.15,2013-02-07 08:38:00,
2013-02-07 03:48:00,40.0,38.1,30.14,WSW,245,0.0,3.0,93,0.00,,,0.00,Wunderground v.1.15,2013-02-07 08:48:00,
2013-02-07 03:53:00,40.0,38.1,30.14,WSW,245,0.0,3.0,93,0.00,,,0.00,Wunderground v.1.15,2013-02-07 08:53:00,
2013-02-07 03:58:00,40.0,38.1,30.14,WSW,243,0.0,3.0,93,0.00,,,0.00,Wunderground v.1.15,2013-02-07 08:58:00,
2013-02-07 04:03:00,40.0,38.1,30.14,WSW,245,0.0,3.0,93,0.00,,,0.00,Wunderground v.1.15,2013-02-07 09:03:00,
2013-02-07 04:08:00,40.1,38.2,30.14,WSW,245,0.0,3.0,93,0.00,,,0.00,Wunderground v.1.15,2013-02-07 09:08:00,
2013-02-07 04:13:00,40.2,38.3,30.14,WSW,245,0.0,3.0,93,0.00,,,0.00,Wunderground v.1.15,2013-02-07 09:13:00,
2013-02-07 04:18:00,40.3,38.4,30.14,WSW,245,0.0,3.0,93,0.00,,,0.00,Wunderground v.1.15,2013-02-07 09:18:00,
2013-02-07 04:23:00,40.4,38.5,30.14,WSW,245,0.0,3.0,93,0.00,,,0.00,Wunderground v.1.15,2013-02-07 09:23:00,
2013-02-07 04:28:00,40.5,38.6,30.14,WSW,245,0.0,3.0,93,0.00,,,0.00,Wunderground v.1.15,2013-02-07 09:28:00,
2013-02-07 04:33:00,40.4,38.5,30.14,WSW,243,0.0,3.0,93,0.00,,,0.00,Wunderground v.1.15,2013-02-07 09:33:00,
2013-02-07 04:38:00,40.4,38.5,30.13,WSW,245,0.0,3.0,93,0.00,,,0.00,Wunderground v.1.15,2013-02-07 09:38:00,
2013-02-07 04:48:00,40.7,38.8,30.13,WSW,243,0.0,3.0,93,0.00,,,0.00,Wunderground v.1.15,2013-02-07 09:48:00,
2013-02-07 04:53:00,41.0,39.1,30.12,WSW,245,0.0,3.0,93,0.00,,,0.00,Wunderground v.1.15,2013-02-07 09:53:00,
2013-02-07 04:58:00,41.1,39.2,30.12,WSW,243,0.0,3.0,93,0.00,,,0.00,Wunderground v.1.15,2013-02-07 09:58:00,
2013-02-07 05:03:00,41.1,39.2,30.12,WSW,245,0.0,3.0,93,0.00,,,0.00,Wunderground v.1.15,2013-02-07 10:03:00,
2013-02-07 05:08:00,40.9,39.0,30.12,WSW,245,0.0,3.0,93,0.00,,,0.00,Wunderground v.1.15,2013-02-07 10:08:00,
2013-02-07 05:13:00,40.8,38.9,30.13,West,271,0.0,3.0,93,0.00,,,0.00,Wunderground v.1.15,2013-02-07 10:13:00,
2013-02-07 05:23:00,40.7,38.8,30.12,West,271,0.0,3.0,93,0.00,,,0.00,Wunderground v.1.15,2013-02-07 10:23:00,
2013-02-07 05:28:00,40.7,38.8,30.12,West,271,0.0,3.0,93,0.00,,,0.00,Wunderground v.1.15,2013-02-07 10:28:00,
2013-02-07 05:33:00,40.7,38.6,30.12,West,271,0.0,3.0,92,0.00,,,0.00,Wunderground v.1.15,2013-02-07 10:33:00,
2013-02-07 05:38:00,40.7,38.6,30.12,West,271,0.0,3.0,92,0.00,,,0.00,Wunderground v.1.15,2013-02-07 10:38:00,
2013-02-07 05:43:00,40.8,38.9,30.12,NNW,338,0.0,3.0,93,0.00,,,0.00,Wunderground v.1.15,2013-02-07 10:43:00,
2013-02-07 05:53:00,40.9,38.8,30.13,NNW,338,0.0,3.0,92,0.00,,,0.00,Wunderground v.1.15,2013-02-07 10:53:00,
2013-02-07 05:58:00,40.9,38.8,30.13,WNW,282,0.0,3.0,92,0.00,,,0.00,Wunderground v.1.15,2013-02-07 10:58:00,
2013-02-07 06:08:00,40.9,38.8,30.13,WNW,283,0.0,3.0,92,0.00,,,0.00,Wunderground v.1.15,2013-02-07 11:08:00,
2013-02-07 06:13:00,40.8,38.9,30.13,WNW,282,0.0,3.0,93,0.00,,,0.00,Wunderground v.1.15,2013-02-07 11:13:00,
2013-02-07 06:18:00,40.8,38.9,30.13,WNW,283,0.0,3.0,93,0.00,,,0.00,Wunderground v.1.15,2013-02-07 11:18:00,
2013-02-07 06:28:00,40.9,39.0,30.12,WNW,282,0.0,3.0,93,0.00,,,0.00,Wunderground v.1.15,2013-02-07 11:28:00,
2013-02-07 06:33:00,41.0,39.1,30.13,WNW,283,0.0,3.0,93,0.00,,,0.00,Wunderground v.1.15,2013-02-07 11:33:00,
2013-02-07 06:38:00,41.0,39.1,30.12,WSW,240,0.0,3.0,93,0.00,,,0.00,Wunderground v.1.15,2013-02-07 11:38:00,
2013-02-07 06:43:00,40.9,39.0,30.12,SW,229,0.0,3.0,93,0.00,,,0.00,Wunderground v.1.15,2013-02-07 11:43:00,
2013-02-07 06:48:00,40.9,39.0,30.12,SW,229,0.0,3.0,93,0.00,,,0.00,Wunderground v.1.15,2013-02-07 11:48:00,
2013-02-07 06:58:00,40.9,39.0,30.12,SW,229,0.0,3.0,93,0.00,,,0.00,Wunderground v.1.15,2013-02-07 11:58:00,
2013-02-07 07:03:00,40.9,39.0,30.12,SW,229,0.0,3.0,93,0.00,,,0.00,Wunderground v.1.15,2013-02-07 12:03:00,
2013-02-07 07:08:00,40.8,38.9,30.12,SW,228,0.0,3.0,93,0.00,,,0.00,Wunderground v.1.15,2013-02-07 12:08:00,
2013-02-07 07:13:00,40.8,38.9,30.12,SW,229,0.0,3.0,93,0.00,,,0.00,Wunderground v.1.15,2013-02-07 12:13:00,
2013-02-07 07:18:00,40.9,39.0,30.12,North,351,0.0,3.0,93,0.00,,,0.00,Wunderground v.1.15,2013-02-07 12:18:00,
2013-02-07 07:23:00,41.3,39.4,30.12,North,353,1.0,3.0,93,0.00,,,0.00,Wunderground v.1.15,2013-02-07 12:23:00,
2013-02-07 07:33:00,41.7,39.5,30.12,North,353,0.0,3.0,92,0.00,,,0.00,Wunderground v.1.15,2013-02-07 12:33:00,
2013-02-07 07:38:00,41.6,39.2,30.12,WSW,245,0.0,3.0,91,0.00,,,0.00,Wunderground v.1.15,2013-02-07 12:38:00,
2013-02-07 07:43:00,41.4,39.3,30.12,WSW,239,1.0,3.0,92,0.00,,,0.00,Wunderground v.1.15,2013-02-07 12:43:00,
2013-02-07 07:48:00,41.3,39.2,30.12,WSW,239,1.0,1.0,92,0.00,,,0.00,Wunderground v.1.15,2013-02-07 12:48:00,
2013-02-07 07:53:00,41.3,39.2,30.13,WSW,239,0.0,3.0,92,0.00,,,0.00,Wunderground v.1.15,2013-02-07 12:53:00,
2013-02-07 07:58:00,41.3,39.4,30.12,WSW,239,0.0,3.0,93,0.00,,,0.00,Wunderground v.1.15,2013-02-07 12:58:00,
2013-02-07 08:03:00,41.3,39.4,30.12,WSW,238,0.0,3.0,93,0.00,,,0.00,Wunderground v.1.15,2013-02-07 13:03:00,
2013-02-07 08:08:00,41.4,39.3,30.12,WSW,239,0.0,3.0,92,0.00,,,0.00,Wunderground v.1.15,2013-02-07 13:08:00,
2013-02-07 08:13:00,41.5,39.3,30.12,WSW,239,0.0,3.0,92,0.00,,,0.00,Wunderground v.1.15,2013-02-07 13:13:00,
2013-02-07 08:23:00,41.9,39.5,30.12,WSW,239,0.0,3.0,91,0.00,,,0.00,Wunderground v.1.15,2013-02-07 13:23:00,
2013-02-07 08:28:00,42.0,39.6,30.12,WSW,239,0.0,3.0,91,0.00,,,0.00,Wunderground v.1.15,2013-02-07 13:28:00,
2013-02-07 08:33:00,42.2,39.2,30.12,WSW,239,0.0,3.0,89,0.00,,,0.00,Wunderground v.1.15,2013-02-07 13:33:00,
2013-02-07 08:38:00,42.4,39.4,30.12,WSW,239,0.0,3.0,89,0.00,,,0.00,Wunderground v.1.15,2013-02-07 13:38:00,
2013-02-07 08:43:00,42.6,39.6,30.12,WSW,239,0.0,3.0,89,0.00,,,0.00,Wunderground v.1.15,2013-02-07 13:43:00,
2013-02-07 08:48:00,42.8,39.8,30.12,NNW,345,0.0,3.0,89,0.00,,,0.00,Wunderground v.1.15,2013-02-07 13:48:00,
2013-02-07 08:53:00,43.1,40.1,30.12,North,354,0.0,3.0,89,0.00,,,0.00,Wunderground v.1.15,2013-02-07 13:53:00,
2013-02-07 08:58:00,43.4,40.4,30.12,North,354,0.0,3.0,89,0.00,,,0.00,Wunderground v.1.15,2013-02-07 13:58:00,
2013-02-07 09:08:00,43.9,40.6,30.11,North,354,0.0,3.0,88,0.00,,,0.00,Wunderground v.1.15,2013-02-07 14:08:00,
2013-02-07 09:13:00,44.0,40.4,30.11,NNE,13,0.0,3.0,87,0.00,,,0.00,Wunderground v.1.15,2013-02-07 14:13:00,
2013-02-07 09:18:00,44.2,40.6,30.11,NNE,13,0.0,3.0,87,0.00,,,0.00,Wunderground v.1.15,2013-02-07 14:18:00,
2013-02-07 09:23:00,44.3,40.4,30.10,NE,51,0.0,3.0,86,0.00,,,0.00,Wunderground v.1.15,2013-02-07 14:23:00,
2013-02-07 09:28:00,44.6,40.1,30.10,ENE,67,1.0,3.0,84,0.00,,,0.00,Wunderground v.1.15,2013-02-07 14:28:00,
2013-02-07 09:38:00,44.7,40.2,30.10,ENE,65,2.0,3.0,84,0.00,,,0.00,Wunderground v.1.15,2013-02-07 14:38:00,
2013-02-07 09:43:00,44.8,40.0,30.10,ENE,73,2.0,3.0,83,0.00,,,0.00,Wunderground v.1.15,2013-02-07 14:43:00,
2013-02-07 09:48:00,44.9,39.7,30.10,NE,46,2.0,2.0,82,0.00,,,0.00,Wunderground v.1.15,2013-02-07 14:48:00,
2013-02-07 09:53:00,45.1,39.6,30.10,North,354,1.0,3.0,81,0.00,,,0.00,Wunderground v.1.15,2013-02-07 14:53:00,
2013-02-07 09:58:00,45.2,40.0,30.10,West,269,0.0,3.0,82,0.00,,,0.00,Wunderground v.1.15,2013-02-07 14:58:00,
2013-02-07 10:03:00,45.4,40.2,30.10,WSW,245,0.0,3.0,82,0.00,,,0.00,Wunderground v.1.15,2013-02-07 15:03:00,
2013-02-07 10:13:00,45.5,40.3,30.10,NE,44,0.0,3.0,82,0.00,,,0.00,Wunderground v.1.15,2013-02-07 15:13:00,
2013-02-07 10:18:00,45.6,39.8,30.10,NE,54,1.0,3.0,80,0.00,,,0.00,Wunderground v.1.15,2013-02-07 15:18:00,
2013-02-07 10:23:00,45.8,39.7,30.10,NNE,16,1.0,3.0,79,0.00,,,0.00,Wunderground v.1.15,2013-02-07 15:23:00,
2013-02-07 10:28:00,46.0,39.9,30.10,NNW,345,1.0,3.0,79,0.00,,,0.00,Wunderground v.1.15,2013-02-07 15:28:00,
2013-02-07 10:33:00,46.0,39.9,30.10,NE,44,1.0,3.0,79,0.00,,,0.00,Wunderground v.1.15,2013-02-07 15:33:00,
2013-02-07 10:43:00,46.2,40.0,30.10,ENE,67,0.0,3.0,79,0.00,,,0.00,Wunderground v.1.15,2013-02-07 15:43:00,
2013-02-07 10:48:00,46.3,39.8,30.10,NNE,14,0.0,3.0,78,0.00,,,0.00,Wunderground v.1.15,2013-02-07 15:48:00,
2013-02-07 10:53:00,46.4,39.9,30.09,NNE,25,1.0,3.0,78,0.00,,,0.00,Wunderground v.1.15,2013-02-07 15:53:00,
2013-02-07 10:58:00,46.5,40.0,30.09,NNE,26,2.0,3.0,78,0.00,,,0.00,Wunderground v.1.15,2013-02-07 15:58:00,
2013-02-07 11:03:00,46.7,40.2,30.09,NE,56,1.0,3.0,78,0.00,,,0.00,Wunderground v.1.15,2013-02-07 16:03:00,
2013-02-07 11:08:00,46.8,39.6,30.08,NNE,22,1.0,3.0,76,0.00,,,0.00,Wunderground v.1.15,2013-02-07 16:08:00,
2013-02-07 11:18:00,47.4,39.9,30.08,NE,44,2.0,3.0,75,0.00,,,0.00,Wunderground v.1.15,2013-02-07 16:18:00,
2013-02-07 11:23:00,47.6,39.4,30.08,NE,47,2.0,3.0,73,0.00,,,0.00,Wunderground v.1.15,2013-02-07 16:23:00,
2013-02-07 11:28:00,47.8,39.2,30.08,NE,50,2.0,3.0,72,0.00,,,0.00,Wunderground v.1.15,2013-02-07 16:28:00,
2013-02-07 11:33:00,47.9,39.7,30.08,ENE,57,2.0,3.0,73,0.00,,,0.00,Wunderground v.1.15,2013-02-07 16:33:00,
2013-02-07 11:38:00,48.2,39.6,30.08,ENE,68,2.0,2.0,72,0.00,,,0.00,Wunderground v.1.15,2013-02-07 16:38:00,
2013-02-07 11:48:00,48.6,40.3,30.08,NE,37,2.0,2.0,73,0.00,,,0.00,Wunderground v.1.15,2013-02-07 16:48:00,
2013-02-07 11:53:00,48.8,40.5,30.07,NE,34,2.0,3.0,73,0.00,,,0.00,Wunderground v.1.15,2013-02-07 16:53:00,
2013-02-07 11:58:00,48.9,40.6,30.07,NNE,29,2.0,3.0,73,0.00,,,0.00,Wunderground v.1.15,2013-02-07 16:58:00,
2013-02-07 12:03:00,49.1,40.8,30.07,NE,40,3.0,3.0,73,0.00,,,0.00,Wunderground v.1.15,2013-02-07 17:03:00,
2013-02-07 12:08:00,49.4,40.7,30.07,NNE,23,3.0,3.0,72,0.00,,,0.00,Wunderground v.1.15,2013-02-07 17:08:00,
2013-02-07 12:13:00,49.7,41.0,30.06,ENE,63,3.0,3.0,72,0.00,,,0.00,Wunderground v.1.15,2013-02-07 17:13:00,
2013-02-07 12:18:00,49.9,41.2,30.06,NE,46,2.0,2.0,72,0.00,,,0.00,Wunderground v.1.15,2013-02-07 17:18:00,
2013-02-07 12:23:00,50.3,41.3,30.05,NE,50,1.0,3.0,71,0.00,,,0.00,Wunderground v.1.15,2013-02-07 17:23:00,
2013-02-07 12:28:00,50.5,41.4,30.05,ENE,71,1.0,3.0,71,0.00,,,0.00,Wunderground v.1.15,2013-02-07 17:28:00,
2013-02-07 12:33:00,50.8,41.4,30.04,NE,44,2.0,3.0,70,0.00,,,0.00,Wunderground v.1.15,2013-02-07 17:33:00,
2013-02-07 12:43:00,51.4,41.6,30.03,NE,50,2.0,3.0,69,0.00,,,0.00,Wunderground v.1.15,2013-02-07 17:43:00,
2013-02-07 12:48:00,51.6,41.8,30.02,NNE,32,2.0,3.0,69,0.00,,,0.00,Wunderground v.1.15,2013-02-07 17:48:00,
2013-02-07 12:53:00,51.9,42.0,30.02,NE,39,2.0,3.0,69,0.00,,,0.00,Wunderground v.1.15,2013-02-07 17:53:00,
2013-02-07 12:58:00,52.2,42.0,30.02,NNE,26,3.0,4.0,68,0.00,,,0.00,Wunderground v.1.15,2013-02-07 17:58:00,
2013-02-07 13:03:00,52.4,42.5,30.02,NNE,25,3.0,4.0,69,0.00,,,0.00,Wunderground v.1.15,2013-02-07 18:03:00,
2013-02-07 13:08:00,52.7,42.0,30.02,NNE,32,4.0,4.0,67,0.00,,,0.00,Wunderground v.1.15,2013-02-07 18:08:00,
2013-02-07 13:13:00,52.8,41.7,30.02,NE,34,4.0,4.0,66,0.00,,,0.00,Wunderground v.1.15,2013-02-07 18:13:00,
2013-02-07 13:18:00,52.9,42.2,30.01,NNE,29,4.0,4.0,67,0.00,,,0.00,Wunderground v.1.15,2013-02-07 18:18:00,
2013-02-07 13:23:00,53.0,41.9,30.01,NNE,21,3.0,4.0,66,0.00,,,0.00,Wunderground v.1.15,2013-02-07 18:23:00,
2013-02-07 13:28:00,53.0,41.9,30.01,NE,41,4.0,4.0,66,0.00,,,0.00,Wunderground v.1.15,2013-02-07 18:28:00,
2013-02-07 13:33:00,53.2,42.1,30.01,NE,39,4.0,4.0,66,0.00,,,0.00,Wunderground v.1.15,2013-02-07 18:33:00,
2013-02-07 13:38:00,53.3,42.2,30.01,NNE,26,4.0,5.0,66,0.00,,,0.00,Wunderground v.1.15,2013-02-07 18:38:00,
2013-02-07 13:43:00,53.5,42.4,30.01,NNE,30,4.0,5.0,66,0.00,,,0.00,Wunderground v.1.15,2013-02-07 18:43:00,
2013-02-07 13:48:00,53.7,42.2,30.00,NNE,32,4.0,4.0,65,0.00,,,0.00,Wunderground v.1.15,2013-02-07 18:48:00,
2013-02-07 13:53:00,53.9,42.4,30.00,NNE,30,3.0,4.0,65,0.00,,,0.00,Wunderground v.1.15,2013-02-07 18:53:00,
2013-02-07 13:58:00,54.0,42.5,30.00,NNE,13,2.0,2.0,65,0.00,,,0.00,Wunderground v.1.15,2013-02-07 18:58:00,
2013-02-07 14:03:00,54.1,42.6,29.99,NE,36,2.0,3.0,65,0.00,,,0.00,Wunderground v.1.15,2013-02-07 19:03:00,
2013-02-07 14:08:00,54.3,43.6,29.99,North,5,1.0,3.0,67,0.00,,,0.00,Wunderground v.1.15,2013-02-07 19:08:00,
2013-02-07 14:13:00,54.5,43.8,29.98,NNE,25,1.0,3.0,67,0.00,,,0.00,Wunderground v.1.15,2013-02-07 19:13:00,
2013-02-07 14:18:00,54.7,43.6,29.98,NNE,26,0.0,3.0,66,0.00,,,0.00,Wunderground v.1.15,2013-02-07 19:18:00,
2013-02-07 14:28:00,55.5,45.5,29.98,SW,219,2.0,3.0,69,0.00,,,0.00,Wunderground v.1.15,2013-02-07 19:28:00,
2013-02-07 14:33:00,55.9,46.3,29.98,SSW,200,2.0,3.0,70,0.00,,,0.00,Wunderground v.1.15,2013-02-07 19:33:00,
2013-02-07 14:38:00,56.1,46.1,29.98,South,189,2.0,5.0,69,0.00,,,0.00,Wunderground v.1.15,2013-02-07 19:38:00,
2013-02-07 14:43:00,56.2,46.5,29.98,SSE,163,2.0,5.0,70,0.00,,,0.00,Wunderground v.1.15,2013-02-07 19:43:00,
2013-02-07 14:48:00,56.3,46.6,29.98,SSW,211,2.0,3.0,70,0.00,,,0.00,Wunderground v.1.15,2013-02-07 19:48:00,
2013-02-07 14:53:00,56.3,46.6,29.98,SSE,150,2.0,3.0,70,0.00,,,0.00,Wunderground v.1.15,2013-02-07 19:53:00,
2013-02-07 15:03:00,56.0,47.1,29.98,WSW,243,2.0,3.0,72,0.00,,,0.00,Wunderground v.1.15,2013-02-07 20:03:00,
2013-02-07 15:08:00,55.7,47.2,29.98,South,179,2.0,2.0,73,0.00,,,0.00,Wunderground v.1.15,2013-02-07 20:08:00,
2013-02-07 15:13:00,55.5,47.3,29.98,SSE,155,2.0,3.0,74,0.00,,,0.00,Wunderground v.1.15,2013-02-07 20:13:00,
2013-02-07 15:18:00,55.1,47.3,29.98,South,181,2.0,3.0,75,0.00,,,0.00,Wunderground v.1.15,2013-02-07 20:18:00,
2013-02-07 15:23:00,54.9,47.8,29.97,SSW,207,2.0,3.0,77,0.00,,,0.00,Wunderground v.1.15,2013-02-07 20:23:00,
2013-02-07 15:33:00,54.5,48.1,29.97,ESE,121,0.0,3.0,79,0.00,,,0.00,Wunderground v.1.15,2013-02-07 20:33:00,
2013-02-07 15:38:00,54.3,48.3,29.97,ESE,123,0.0,3.0,80,0.00,,,0.00,Wunderground v.1.15,2013-02-07 20:38:00,
2013-02-07 15:43:00,54.3,48.6,29.96,ESE,123,0.0,3.0,81,0.00,,,0.00,Wunderground v.1.15,2013-02-07 20:43:00,
2013-02-07 15:48:00,54.2,48.5,29.96,SE,124,0.0,3.0,81,0.00,,,0.00,Wunderground v.1.15,2013-02-07 20:48:00,
2013-02-07 15:53:00,54.2,48.8,29.96,SE,124,0.0,3.0,82,0.00,,,0.00,Wunderground v.1.15,2013-02-07 20:53:00,
2013-02-07 15:58:00,54.2,48.8,29.96,SE,124,0.0,3.0,82,0.00,,,0.00,Wunderground v.1.15,2013-02-07 20:58:00,
2013-02-07 16:08:00,54.2,48.8,29.96,ESE,123,0.0,3.0,82,0.00,,,0.00,Wunderground v.1.15,2013-02-07 21:08:00,
2013-02-07 16:13:00,54.0,49.0,29.96,SE,124,0.0,3.0,83,0.00,,,0.00,Wunderground v.1.15,2013-02-07 21:13:00,
2013-02-07 16:18:00,53.8,48.8,29.96,ESE,122,0.0,3.0,83,0.00,,,0.00,Wunderground v.1.15,2013-02-07 21:18:00,
2013-02-07 16:23:00,53.6,48.9,29.96,ESE,122,0.0,3.0,84,0.00,,,0.00,Wunderground v.1.15,2013-02-07 21:23:00,
2013-02-07 16:28:00,53.4,49.0,29.96,NW,318,0.0,3.0,85,0.00,,,0.00,Wunderground v.1.15,2013-02-07 21:28:00,
2013-02-07 16:38:00,53.3,49.5,29.96,North,354,1.0,3.0,87,0.00,,,0.00,Wunderground v.1.15,2013-02-07 21:38:00,
2013-02-07 16:43:00,53.1,49.3,29.96,NNE,19,1.0,3.0,87,0.00,,,0.00,Wunderground v.1.15,2013-02-07 21:43:00,
2013-02-07 16:48:00,53.0,49.2,29.96,NNE,25,1.0,3.0,87,0.00,,,0.00,Wunderground v.1.15,2013-02-07 21:48:00,
2013-02-07 16:53:00,52.8,49.0,29.96,NNE,25,2.0,3.0,87,0.00,,,0.01,Wunderground v.1.15,2013-02-07 21:53:00,
2013-02-07 16:58:00,52.6,48.8,29.96,North,356,2.0,3.0,87,0.00,,,0.01,Wunderground v.1.15,2013-02-07 21:58:00,
2013-02-07 17:03:00,52.2,48.4,29.96,NNW,337,2.0,3.0,87,0.00,,,0.01,Wunderground v.1.15,2013-02-07 22:03:00,
2013-02-07 17:13:00,51.7,48.6,29.96,NNE,16,2.0,3.0,89,0.00,,,0.01,Wunderground v.1.15,2013-02-07 22:13:00,
2013-02-07 17:18:00,51.5,48.7,29.96,NNE,25,2.0,3.0,90,0.00,,,0.01,Wunderground v.1.15,2013-02-07 22:18:00,
2013-02-07 17:23:00,51.3,48.8,29.96,NNE,21,2.0,3.0,91,0.00,,,0.01,Wunderground v.1.15,2013-02-07 22:23:00,
2013-02-07 17:28:00,51.2,48.7,29.96,NNE,22,2.0,5.0,91,0.00,,,0.01,Wunderground v.1.15,2013-02-07 22:28:00,
2013-02-07 17:33:00,50.9,48.4,29.96,NNE,30,3.0,5.0,91,0.00,,,0.01,Wunderground v.1.15,2013-02-07 22:33:00,
2013-02-07 17:38:00,50.7,48.2,29.96,NE,43,3.0,3.0,91,0.00,,,0.02,Wunderground v.1.15,2013-02-07 22:38:00,
2013-02-07 17:43:00,50.2,46.8,29.96,NE,37,3.0,5.0,88,0.00,,,0.02,Wunderground v.1.15,2013-02-07 22:43:00,
2013-02-07 17:48:00,49.8,46.1,29.96,NE,37,4.0,4.0,87,0.00,,,0.02,Wunderground v.1.15,2013-02-07 22:48:00,
2013-02-07 17:53:00,49.7,46.3,29.96,NNE,30,5.0,5.0,88,0.00,,,0.02,Wunderground v.1.15,2013-02-07 22:53:00,
2013-02-07 17:58:00,49.6,46.2,29.96,North,6,4.0,4.0,88,0.00,,,0.02,Wunderground v.1.15,2013-02-07 22:58:00,
2013-02-07 18:03:00,49.4,46.3,29.96,NNE,26,3.0,4.0,89,0.00,,,0.02,Wunderground v.1.15,2013-02-07 23:03:00,
2013-02-07 18:13:00,49.2,46.1,29.96,NE,44,2.0,3.0,89,0.00,,,0.02,Wunderground v.1.15,2013-02-07 23:13:00,
2013-02-07 18:18:00,49.2,46.1,29.97,NE,44,1.0,3.0,89,0.00,,,0.02,Wunderground v.1.15,2013-02-07 23:18:00,
2013-02-07 18:23:00,49.3,46.2,29.97,NE,44,1.0,3.0,89,0.00,,,0.02,Wunderground v.1.15,2013-02-07 23:23:00,
2013-02-07 18:28:00,49.1,46.0,29.97,North,356,1.0,3.0,89,0.00,,,0.02,Wunderground v.1.15,2013-02-07 23:28:00,
2013-02-07 18:33:00,48.9,46.1,29.96,NNE,23,1.0,3.0,90,0.00,,,0.02,Wunderground v.1.15,2013-02-07 23:33:00,
2013-02-07 18:38:00,48.8,45.7,29.96,NE,56,1.0,3.0,89,0.00,,,0.02,Wunderground v.1.15,2013-02-07 23:38:00,
2013-02-07 18:48:00,48.9,45.2,29.96,NE,47,2.0,3.0,87,0.00,,,0.02,Wunderground v.1.15,2013-02-07 23:48:00,
2013-02-07 18:53:00,48.9,45.2,29.96,ENE,57,2.0,3.0,87,0.00,,,0.02,Wunderground v.1.15,2013-02-07 23:53:00,
2013-02-07 18:58:00,48.8,45.1,29.96,ENE,68,2.0,3.0,87,0.00,,,0.02,Wunderground v.1.15,2013-02-07 23:58:00,
2013-02-07 19:03:00,48.7,45.3,29.96,NE,47,2.0,3.0,88,0.00,,,0.02,Wunderground v.1.15,2013-02-08 00:03:00,
2013-02-07 19:08:00,48.5,45.1,29.96,NE,49,2.0,3.0,88,0.00,,,0.02,Wunderground v.1.15,2013-02-08 00:08:00,
2013-02-07 19:18:00,48.3,45.2,29.96,NE,37,3.0,3.0,89,0.00,,,0.02,Wunderground v.1.15,2013-02-08 00:18:00,
2013-02-07 19:23:00,48.2,45.4,29.97,NNE,26,3.0,3.0,90,0.00,,,0.02,Wunderground v.1.15,2013-02-08 00:23:00,
2013-02-07 19:28:00,48.0,45.5,29.97,NNE,12,3.0,4.0,91,0.00,,,0.02,Wunderground v.1.15,2013-02-08 00:28:00,
2013-02-07 19:33:00,47.7,45.5,29.97,NNE,29,3.0,4.0,92,0.00,,,0.02,Wunderground v.1.15,2013-02-08 00:33:00,
2013-02-07 19:38:00,47.5,45.6,29.97,NE,34,3.0,3.0,93,0.00,,,0.02,Wunderground v.1.15,2013-02-08 00:38:00,
2013-02-07 19:43:00,47.5,45.6,29.97,ENE,57,3.0,3.0,93,0.00,,,0.02,Wunderground v.1.15,2013-02-08 00:43:00,
2013-02-07 19:53:00,47.7,45.8,29.97,NE,49,2.0,3.0,93,0.00,,,0.02,Wunderground v.1.15,2013-02-08 00:53:00,
2013-02-07 20:03:00,47.8,45.6,29.97,ENE,61,2.0,3.0,92,0.00,,,0.02,Wunderground v.1.15,2013-02-08 01:03:00,
2013-02-07 20:08:00,47.8,45.9,29.96,ENE,60,2.0,2.0,93,0.00,,,0.02,Wunderground v.1.15,2013-02-08 01:08:00,
2013-02-07 20:13:00,47.7,45.8,29.96,NE,36,1.0,3.0,93,0.00,,,0.02,Wunderground v.1.15,2013-02-08 01:13:00,
2013-02-07 20:18:00,47.8,45.9,29.96,NE,50,1.0,1.0,93,0.00,,,0.02,Wunderground v.1.15,2013-02-08 01:18:00,
2013-02-07 20:28:00,47.8,45.9,29.96,NE,37,2.0,4.0,93,0.00,,,0.02,Wunderground v.1.15,2013-02-08 01:28:00,
2013-02-07 20:33:00,47.8,45.9,29.96,NE,44,2.0,4.0,93,0.00,,,0.02,Wunderground v.1.15,2013-02-08 01:33:00,
2013-02-07 20:38:00,47.7,45.8,29.96,NE,44,2.0,3.0,93,0.00,,,0.02,Wunderground v.1.15,2013-02-08 01:38:00,
2013-02-07 20:43:00,47.7,45.8,29.96,North,359,2.0,3.0,93,0.00,,,0.02,Wunderground v.1.15,2013-02-08 01:43:00,
2013-02-07 20:48:00,47.7,45.8,29.97,North,359,1.0,1.0,93,0.00,,,0.02,Wunderground v.1.15,2013-02-08 01:48:00,
2013-02-07 20:58:00,47.5,45.9,29.96,North,359,0.0,3.0,94,0.00,,,0.02,Wunderground v.1.15,2013-02-08 01:58:00,
2013-02-07 21:03:00,47.4,45.8,29.95,North,359,0.0,3.0,94,0.00,,,0.02,Wunderground v.1.15,2013-02-08 02:03:00,
2013-02-07 21:08:00,47.5,45.9,29.95,North,358,0.0,3.0,94,0.00,,,0.02,Wunderground v.1.15,2013-02-08 02:08:00,
2013-02-07 21:13:00,47.6,46.0,29.95,NNE,33,1.0,3.0,94,0.00,,,0.02,Wunderground v.1.15,2013-02-08 02:13:00,
2013-02-07 21:18:00,47.8,46.2,29.95,North,4,2.0,3.0,94,0.00,,,0.02,Wunderground v.1.15,2013-02-08 02:18:00,
2013-02-07 21:23:00,47.8,46.2,29.95,North,358,2.0,3.0,94,0.00,,,0.02,Wunderground v.1.15,2013-02-08 02:23:00,
2013-02-07 21:28:00,47.6,46.0,29.95,North,11,2.0,3.0,94,0.00,,,0.02,Wunderground v.1.15,2013-02-08 02:28:00,
2013-02-07 21:33:00,47.6,46.2,29.95,NE,40,2.0,3.0,95,0.00,,,0.02,Wunderground v.1.15,2013-02-08 02:33:00,
2013-02-07 21:38:00,47.6,46.2,29.95,NNE,33,2.0,2.0,95,0.00,,,0.02,Wunderground v.1.15,2013-02-08 02:38:00,
2013-02-07 21:43:00,47.6,46.0,29.95,NE,37,2.0,3.0,94,0.00,,,0.02,Wunderground v.1.15,2013-02-08 02:43:00,
2013-02-07 21:48:00,47.7,46.1,29.95,NE,40,3.0,4.0,94,0.00,,,0.02,Wunderground v.1.15,2013-02-08 02:48:00,
2013-02-07 21:53:00,47.8,46.2,29.95,NE,53,3.0,4.0,94,0.00,,,0.02,Wunderground v.1.15,2013-02-08 02:53:00,
2013-02-07 22:03:00,47.9,45.7,29.95,NNE,29,3.0,3.0,92,0.00,,,0.02,Wunderground v.1.15,2013-02-08 03:03:00,
2013-02-07 22:08:00,47.9,45.7,29.95,NNE,30,3.0,3.0,92,0.00,,,0.02,Wunderground v.1.15,2013-02-08 03:08:00,
2013-02-07 22:13:00,47.9,45.7,29.95,NNE,27,3.0,3.0,92,0.00,,,0.02,Wunderground v.1.15,2013-02-08 03:13:00,
2013-02-07 22:18:00,47.9,45.7,29.96,NNW,341,2.0,2.0,92,0.00,,,0.02,Wunderground v.1.15,2013-02-08 03:18:00,
2013-02-07 22:23:00,47.8,45.6,29.96,NNW,341,1.0,3.0,92,0.00,,,0.02,Wunderground v.1.15,2013-02-08 03:23:00,
2013-02-07 22:33:00,47.8,45.6,29.96,NNE,17,1.0,3.0,92,0.00,,,0.02,Wunderground v.1.15,2013-02-08 03:33:00,
2013-02-07 22:38:00,47.9,45.4,29.96,NNE,13,1.0,3.0,91,0.00,,,0.02,Wunderground v.1.15,2013-02-08 03:38:00,
2013-02-07 22:43:00,48.0,45.5,29.96,NNE,22,2.0,3.0,91,0.00,,,0.02,Wunderground v.1.15,2013-02-08 03:43:00,
2013-02-07 22:48:00,48.0,45.5,29.95,NNE,21,1.0,1.0,91,0.00,,,0.02,Wunderground v.1.15,2013-02-08 03:48:00,
2013-02-07 22:53:00,47.9,45.1,29.95,NNE,21,0.0,3.0,90,0.00,,,0.02,Wunderground v.1.15,2013-02-08 03:53:00,
2013-02-07 22:58:00,47.9,45.1,29.95,NNE,22,0.0,3.0,90,0.00,,,0.02,Wunderground v.1.15,2013-02-08 03:58:00,
2013-02-07 23:08:00,47.9,45.1,29.95,NNE,21,1.0,1.0,90,0.00,,,0.02,Wunderground v.1.15,2013-02-08 04:08:00,
2013-02-07 23:13:00,47.9,45.1,29.95,NNE,21,0.0,3.0,90,0.00,,,0.02,Wunderground v.1.15,2013-02-08 04:13:00,
2013-02-07 23:18:00,47.8,45.3,29.95,NNE,22,0.0,3.0,91,0.00,,,0.02,Wunderground v.1.15,2013-02-08 04:18:00,
2013-02-07 23:23:00,47.7,45.2,29.94,ENE,72,0.0,3.0,91,0.00,,,0.02,Wunderground v.1.15,2013-02-08 04:23:00,
2013-02-07 23:28:00,47.6,45.1,29.94,West,269,0.0,3.0,91,0.00,,,0.02,Wunderground v.1.15,2013-02-08 04:28:00,
2013-02-07 23:38:00,47.4,45.5,29.95,NW,326,1.0,3.0,93,0.00,,,0.02,Wunderground v.1.15,2013-02-08 04:38:00,
2013-02-07 23:43:00,47.3,45.7,29.95,NW,326,1.0,3.0,94,0.00,,,0.02,Wunderground v.1.15,2013-02-08 04:43:00,
2013-02-07 23:48:00,47.2,45.6,29.95,NW,326,0.0,3.0,94,0.00,,,0.02,Wunderground v.1.15,2013-02-08 04:48:00,
2013-02-07 23:53:00,47.2,45.6,29.95,NW,326,0.0,3.0,94,0.00,,,0.02,Wunderground v.1.15,2013-02-08 04:53:00,
2013-02-07 23:58:00,47.1,45.5,29.94,East,79,0.0,3.0,94,0.00,,,0.02,Wunderground v.1.15,2013-02-08 04:58:00,